Celine — HBEF — position and weather

sailwx.info

Track history (hours):
 
Tides and Currents Weather Stations Pressure Air Temp Water Temp Dewpoint Dewpoint Depression Visibility Wind Speed Wind Dir Waves Ship Positions

Celine

Last reported at 2017-Mar-15 05:33 UTC. Time now 2017-Mar-24 22:06 UTC.
Position N 37°30' W 009°51'.
Warning: this ship's position is 9 days out of date.

Length 129 m; draft 7.5 m.

Type: Cargo ship. MMSI: 269057000.

Date/timePositionNaut miles runAvg speedWind from/ knotsBaromVisibWave heightAir tempDewpointWater temp
2017-Mar-15 05:33N 37°30' W 009°51'1110.9
2017-Mar-15 04:33N 37°40' W 009°54'1110.9
2017-Mar-15 03:33N 37°51' W 009°57'1110.9
2017-Mar-15 02:33N 38°02' W 010°00'1111.2
2017-Mar-15 01:33N 38°12' W 010°04'1111.2
2017-Mar-15 00:33N 38°23' W 010°07'1111.4
2017-Mar-14 23:33N 38°34' W 010°10'1111.4
2017-Mar-14 22:33N 38°46' W 010°12'1211.7
2017-Mar-14 21:33N 38°57' W 010°13'1211.8
2017-Mar-14 20:33N 39°09' W 010°12'1111.5
2017-Mar-14 19:33N 39°21' W 010°12'1111.2
2017-Mar-14 18:33N 39°32' W 010°12'1111.2
2017-Mar-14 17:33N 39°43' W 010°12'1111.4
2017-Mar-14 16:33N 39°54' W 010°12'  
2017-Mar-12 05:28N 49°33' W 004°06'910.3
2017-Mar-12 04:33N 49°38' W 003°53'1110.7
2017-Mar-12 03:30N 49°43' W 003°38'1112.0
2017-Mar-12 02:33N 49°49' W 003°23'1413.6
2017-Mar-12 01:33N 49°56' W 003°05'1414.3
2017-Mar-12 00:33N 50°02' W 002°45'1814.1
2017-Mar-11 23:18N 50°06' W 002°18'912.7
2017-Mar-11 22:33N 50°09' W 002°04'1111.1
2017-Mar-11 21:33N 50°11' W 001°47'10 9.8
2017-Mar-11 20:33N 50°14' W 001°32'9 9.1
2017-Mar-11 19:33N 50°16' W 001°18'9 9.3
2017-Mar-11 18:33N 50°18' W 001°04'1111.1
2017-Mar-11 17:33N 50°21' W 000°47'1312.9
2017-Mar-11 16:33N 50°25' W 000°28'1414.0
2017-Mar-11 15:33N 50°28' W 000°07'1414.3
2017-Mar-11 14:34N 50°32' E 000°15'1413.8
2017-Mar-11 13:33N 50°36' E 000°36'1312.9
2017-Mar-11 12:33N 50°43' E 000°53'1111.5
2017-Mar-11 11:33N 50°50' E 001°07'1010.4
2017-Mar-11 10:33N 50°57' E 001°20'1110.8
2017-Mar-11 09:33N 51°05' E 001°32'1312.6
2017-Mar-11 08:34N 51°14' E 001°46'1414.4
2017-Mar-11 07:33N 51°26' E 001°57'1414.4
2017-Mar-11 06:34N 51°38' E 002°11'1413.8
2017-Mar-11 05:33N 51°48' E 002°26'1512.1
2017-Mar-11 04:18N 52°02' E 002°35'42911.3
2017-Mar-09 14:26N 57°43' E 010°06'1011.3
2017-Mar-09 13:33N 57°47' E 010°23'1111.1
2017-Mar-09 12:32N 57°48' E 010°44'6 3.3
2017-Mar-09 10:33N 57°42' E 010°40'0 0.0
2017-Mar-09 09:33N 57°42' E 010°40'5 4.5
2017-Mar-09 08:33N 57°40' E 010°47'1313.3
2017-Mar-09 07:33N 57°34' E 011°09'1313.0
2017-Mar-09 06:33N 57°26' E 011°28'1313.4
2017-Mar-09 05:33N 57°13' E 011°37'6711.0
2017-Mar-08 23:29N 56°08' E 011°12'1213.0
2017-Mar-08 22:31N 55°57' E 011°00'3611.4
2017-Mar-08 19:21N 55°21' E 011°02'1012.1
2017-Mar-08 18:33N 55°11' E 011°05'1212.4
2017-Mar-08 17:33N 54°59' E 011°01'1312.9
2017-Mar-08 16:34N 54°47' E 010°53'1212.4
2017-Mar-08 15:33N 54°38' E 011°06'1413.5
2017-Mar-08 14:33N 54°32' E 011°27'1313.2
2017-Mar-08 13:34N 54°26' E 011°48'1212.2
2017-Mar-08 12:33N 54°27' E 012°09'1211.7
2017-Mar-08 11:33N 54°38' E 012°18'6312.1
2017-Mar-08 06:23N 55°03' E 013°58'911.4
2017-Mar-08 05:33N 55°09' E 014°10'1212.1
2017-Mar-08 04:33N 55°18' E 014°24'1212.1
2017-Mar-08 03:33N 55°27' E 014°39'1312.1
2017-Mar-08 02:31N 55°33' E 014°58'35811.8
2017-Mar-06 20:15N 59°35' E 023°09'912.7
2017-Mar-06 19:33N 59°38' E 023°26'1312.8
2017-Mar-06 18:33N 59°41' E 023°51'  
Track history (hours):
 
Tides and Currents Weather Stations Pressure Air Temp Water Temp Dewpoint Dewpoint Depression Visibility Wind Speed Wind Dir Waves Ship Positions

Celine

Last reported at 2017-Mar-15 05:33 UTC. Time now 2017-Mar-24 22:06 UTC.
Position N 37°30' W 009°51'.
Warning: this ship's position is 9 days out of date.

Length 129 m; draft 7.5 m.

Type: Cargo ship. MMSI: 269057000.

Date/timePositionNaut miles runAvg speedWind from/ knotsBaromVisibWave heightAir tempDewpointWater temp
2017-Mar-15 05:33N 37°30' W 009°51'1110.9
2017-Mar-15 04:33N 37°40' W 009°54'1110.9
2017-Mar-15 03:33N 37°51' W 009°57'1110.9
2017-Mar-15 02:33N 38°02' W 010°00'1111.2
2017-Mar-15 01:33N 38°12' W 010°04'1111.2
2017-Mar-15 00:33N 38°23' W 010°07'1111.4
2017-Mar-14 23:33N 38°34' W 010°10'1111.4
2017-Mar-14 22:33N 38°46' W 010°12'1211.7
2017-Mar-14 21:33N 38°57' W 010°13'1211.8
2017-Mar-14 20:33N 39°09' W 010°12'1111.5
2017-Mar-14 19:33N 39°21' W 010°12'1111.2
2017-Mar-14 18:33N 39°32' W 010°12'1111.2
2017-Mar-14 17:33N 39°43' W 010°12'1111.4
2017-Mar-14 16:33N 39°54' W 010°12'  
2017-Mar-12 05:28N 49°33' W 004°06'910.3
2017-Mar-12 04:33N 49°38' W 003°53'1110.7
2017-Mar-12 03:30N 49°43' W 003°38'1112.0
2017-Mar-12 02:33N 49°49' W 003°23'1413.6
2017-Mar-12 01:33N 49°56' W 003°05'1414.3
2017-Mar-12 00:33N 50°02' W 002°45'1814.1
2017-Mar-11 23:18N 50°06' W 002°18'912.7
2017-Mar-11 22:33N 50°09' W 002°04'1111.1
2017-Mar-11 21:33N 50°11' W 001°47'10 9.8
2017-Mar-11 20:33N 50°14' W 001°32'9 9.1
2017-Mar-11 19:33N 50°16' W 001°18'9 9.3
2017-Mar-11 18:33N 50°18' W 001°04'1111.1
2017-Mar-11 17:33N 50°21' W 000°47'1312.9
2017-Mar-11 16:33N 50°25' W 000°28'1414.0
2017-Mar-11 15:33N 50°28' W 000°07'1414.3
2017-Mar-11 14:34N 50°32' E 000°15'1413.8
2017-Mar-11 13:33N 50°36' E 000°36'1312.9
2017-Mar-11 12:33N 50°43' E 000°53'1111.5
2017-Mar-11 11:33N 50°50' E 001°07'1010.4
2017-Mar-11 10:33N 50°57' E 001°20'1110.8
2017-Mar-11 09:33N 51°05' E 001°32'1312.6
2017-Mar-11 08:34N 51°14' E 001°46'1414.4
2017-Mar-11 07:33N 51°26' E 001°57'1414.4
2017-Mar-11 06:34N 51°38' E 002°11'1413.8
2017-Mar-11 05:33N 51°48' E 002°26'1512.1
2017-Mar-11 04:18N 52°02' E 002°35'42911.3
2017-Mar-09 14:26N 57°43' E 010°06'1011.3
2017-Mar-09 13:33N 57°47' E 010°23'1111.1
2017-Mar-09 12:32N 57°48' E 010°44'6 3.3
2017-Mar-09 10:33N 57°42' E 010°40'0 0.0
2017-Mar-09 09:33N 57°42' E 010°40'5 4.5
2017-Mar-09 08:33N 57°40' E 010°47'1313.3
2017-Mar-09 07:33N 57°34' E 011°09'1313.0
2017-Mar-09 06:33N 57°26' E 011°28'1313.4
2017-Mar-09 05:33N 57°13' E 011°37'6711.0
2017-Mar-08 23:29N 56°08' E 011°12'1213.0
2017-Mar-08 22:31N 55°57' E 011°00'3611.4
2017-Mar-08 19:21N 55°21' E 011°02'1012.1
2017-Mar-08 18:33N 55°11' E 011°05'1212.4
2017-Mar-08 17:33N 54°59' E 011°01'1312.9
2017-Mar-08 16:34N 54°47' E 010°53'1212.4
2017-Mar-08 15:33N 54°38' E 011°06'1413.5
2017-Mar-08 14:33N 54°32' E 011°27'1313.2
2017-Mar-08 13:34N 54°26' E 011°48'1212.2
2017-Mar-08 12:33N 54°27' E 012°09'1211.7
2017-Mar-08 11:33N 54°38' E 012°18'6312.1
2017-Mar-08 06:23N 55°03' E 013°58'911.4
2017-Mar-08 05:33N 55°09' E 014°10'1212.1
2017-Mar-08 04:33N 55°18' E 014°24'1212.1
2017-Mar-08 03:33N 55°27' E 014°39'1312.1
2017-Mar-08 02:31N 55°33' E 014°58'35811.8
2017-Mar-06 20:15N 59°35' E 023°09'912.7
2017-Mar-06 19:33N 59°38' E 023°26'1312.8
2017-Mar-06 18:33N 59°41' E 023°51'  

Dump ship's entire track history